Clyde, Michigan
Current Conditions -  °F | °C
As of 6:16 PM on Saturday 25 Oct 2014 (Local Time) from KPHN Reporting Station
Clear Clear  
Wind Chill: 64°   Ceiling: Unl
Heat Index: 64°   Visibility: 10mi
Dew Point: 30°   Wind: 12mph
Humidity: 28%   Direction: 270°W
Pressure: 29.69"   Gusts: 22mph
Location:  43.0355°N, 82.5759°W
Report Text: KPHN 252216Z AUTO 27010G19KT 240V300 10SM CLR 18/M01 A2969 RMK AO2
Loading
Personal Weather Stations






























Interactive Weather Map New forecast layout! Learn more

10-Day Weather Forecast

Advertisements
Track Severe Weather on mobile